Time;durP1;ratioP1;P1;durP2;ratioP2;P2;SDS_P1;SDS_P2;PMS_P1;PMS_P2;Temp;Humidity;BMP_temperature;BMP_pressure;BME280_temperature;BME280_humidity;BME280_pressure;Samples;Min_cycle;Max_cycle;Signal;HPM_P1;HPM_P2
2023/05/03 00:01:00;;;;;;;1.23;0.93;;;8.20;99.90;;;;;;7402985;19;19914;-79
2023/05/03 00:03:30;;;;;;;2.33;1.13;;;8.30;99.90;;;;;;7402469;19;20197;-80
2023/05/03 00:06:11;;;;;;;2.50;0.80;;;8.80;99.90;;;;;;7402865;19;19918;-80
2023/05/03 00:08:40;;;;;;;3.20;0.88;;;8.30;99.90;;;;;;7401372;19;19918;-79
2023/05/03 00:11:10;;;;;;;2.58;0.90;;;9.40;99.90;;;;;;7401765;19;20331;-80
2023/05/03 00:13:39;;;;;;;1.73;0.70;;;8.20;99.90;;;;;;7400844;19;19958;-80
2023/05/03 00:16:08;;;;;;;3.22;0.77;;;8.30;99.90;;;;;;7403884;19;19929;-80
2023/05/03 00:18:37;;;;;;;1.42;0.98;;;8.30;99.90;;;;;;7404700;19;20581;-79
2023/05/03 00:21:09;;;;;;;4.35;0.90;;;8.30;99.90;;;;;;7402002;19;19918;-79
2023/05/03 00:23:37;;;;;;;2.83;1.02;;;8.20;99.90;;;;;;7402327;19;19918;-79
2023/05/03 00:26:09;;;;;;;2.15;1.00;;;8.20;99.90;;;;;;7400525;19;19918;-79
2023/05/03 00:28:38;;;;;;;2.15;1.10;;;8.10;99.90;;;;;;7400711;19;19926;-79
2023/05/03 00:31:12;;;;;;;1.95;0.90;;;8.10;99.90;;;;;;7398401;19;19925;-79
2023/05/03 00:33:41;;;;;;;3.10;1.13;;;8.10;99.90;;;;;;7399841;19;19922;-79
2023/05/03 00:36:15;;;;;;;3.95;1.00;;;8.10;99.90;;;;;;7402036;19;19953;-79
2023/05/03 00:38:44;;;;;;;4.65;1.02;;;8.00;99.90;;;;;;7401712;19;19958;-79
2023/05/03 00:47:58;;;;;;;2.35;1.25;;;8.70;99.90;;;;;;7396872;19;19971;-79
2023/05/03 00:50:27;;;;;;;2.55;1.00;;;8.10;99.90;;;;;;7392664;19;19923;-79
2023/05/03 00:53:02;;;;;;;3.92;1.85;;;7.90;99.90;;;;;;7401161;19;19918;-78
2023/05/03 00:55:31;;;;;;;;;;;8.20;99.90;;;;;;7402757;19;19914;-79
2023/05/03 00:58:03;;;;;;;3.58;1.73;;;7.80;99.90;;;;;;7403143;19;20400;-78
2023/05/03 01:00:33;;;;;;;2.60;1.10;;;7.90;99.90;;;;;;7401202;19;19938;-79
2023/05/03 01:03:02;;;;;;;1.10;0.93;;;7.90;99.90;;;;;;7401154;19;19918;-79
2023/05/03 01:05:36;;;;;;;2.45;0.98;;;8.00;99.90;;;;;;7400386;19;19915;-78
2023/05/03 01:08:13;;;;;;;5.03;1.20;;;8.00;99.90;;;;;;7400293;19;19926;-78
2023/05/03 01:10:48;;;;;;;6.00;1.40;;;8.00;99.90;;;;;;7400979;19;19929;-78
2023/05/03 01:13:25;;;;;;;2.38;1.08;;;7.90;99.90;;;;;;7399099;19;19923;-78
2023/05/03 01:16:02;;;;;;;2.45;0.98;;;8.00;99.90;;;;;;7401854;19;19923;-78
2023/05/03 01:18:33;;;;;;;2.90;1.05;;;8.00;99.90;;;;;;7401250;19;19961;-79
2023/05/03 01:21:04;;;;;;;4.15;1.10;;;8.00;99.90;;;;;;7399723;19;19923;-78
2023/05/03 01:23:44;;;;;;;3.85;1.92;;;7.90;99.90;;;;;;7401496;19;19923;-78
2023/05/03 01:26:26;;;;;;;4.45;1.35;;;8.00;99.90;;;;;;7402398;19;19918;-78
2023/05/03 01:28:57;;;;;;;1.77;1.10;;;8.00;99.90;;;;;;7401349;19;19929;-78
2023/05/03 01:31:33;;;;;;;7.10;1.40;;;8.00;99.90;;;;;;7399314;19;19919;-79
2023/05/03 01:34:16;;;;;;;5.93;1.40;;;7.90;99.90;;;;;;7396165;19;19919;-79
2023/05/03 01:36:46;;;;;;;2.25;1.05;;;8.10;99.90;;;;;;7397539;19;19926;-78
2023/05/03 01:39:20;;;;;;;2.25;1.05;;;8.30;99.90;;;;;;7398672;19;20284;-79
2023/05/03 01:41:52;;;;;;;3.00;1.20;;;8.90;99.90;;;;;;7402761;19;19919;-79
2023/05/03 01:44:22;;;;;;;3.92;1.35;;;8.00;99.90;;;;;;7404778;19;19963;-79
2023/05/03 01:46:51;;;;;;;1.73;1.08;;;7.90;99.90;;;;;;7406793;19;19919;-79
2023/05/03 01:49:20;;;;;;;2.15;1.08;;;8.00;99.90;;;;;;7403931;19;20352;-79
2023/05/03 01:51:49;;;;;;;0.98;0.85;;;8.20;99.90;;;;;;7405938;19;20263;-78
2023/05/03 01:54:18;;;;;;;2.60;1.42;;;7.90;99.90;;;;;;7402621;19;19941;-78
2023/05/03 01:56:47;;;;;;;2.45;1.23;;;7.90;99.90;;;;;;7404847;19;19910;-79
2023/05/03 01:59:18;;;;;;;2.22;1.23;;;8.30;99.90;;;;;;7406688;19;19937;-78
2023/05/03 02:01:47;;;;;;;1.65;1.30;;;8.10;99.90;;;;;;7406405;19;19926;-78
2023/05/03 02:04:16;;;;;;;2.28;1.42;;;8.00;99.90;;;;;;7407843;19;19921;-77
2023/05/03 02:06:45;;;;;;;3.67;1.38;;;7.90;99.90;;;;;;7407039;19;19933;-79
2023/05/03 02:09:14;;;;;;;3.13;1.35;;;8.30;99.90;;;;;;7403115;19;19928;-78
2023/05/03 02:11:43;;;;;;;2.33;1.60;;;7.80;99.90;;;;;;7407284;19;19926;-78
2023/05/03 02:14:12;;;;;;;1.75;1.45;;;7.80;99.90;;;;;;7403323;19;19918;-79
2023/05/03 02:16:43;;;;;;;3.70;1.50;;;7.80;99.90;;;;;;7406147;19;19930;-79
2023/05/03 02:19:12;;;;;;;4.97;1.48;;;7.90;99.90;;;;;;7405658;19;19953;-78
2023/05/03 02:21:41;;;;;;;4.20;1.90;;;7.80;99.90;;;;;;7406266;19;19929;-78
2023/05/03 02:24:10;;;;;;;3.03;1.45;;;8.10;99.90;;;;;;7404787;19;19923;-78
2023/05/03 02:26:39;;;;;;;2.53;1.40;;;7.70;99.90;;;;;;7405706;19;19918;-79
2023/05/03 02:29:09;;;;;;;4.45;1.80;;;7.80;99.90;;;;;;7404931;19;19925;-78
2023/05/03 02:31:38;;;;;;;1.90;1.33;;;7.80;99.90;;;;;;7406432;19;19918;-79
2023/05/03 02:34:09;;;;;;;4.57;1.48;;;7.70;99.90;;;;;;7401665;19;19922;-78
2023/05/03 02:36:38;;;;;;;1.77;1.48;;;7.80;99.90;;;;;;7406637;19;19922;-78
2023/05/03 02:39:07;;;;;;;4.82;1.48;;;7.80;99.90;;;;;;7404719;19;19926;-79
2023/05/03 02:41:36;;;;;;;4.13;1.90;;;8.30;99.90;;;;;;7404219;19;19926;-78
2023/05/03 02:44:05;;;;;;;2.60;1.60;;;7.70;99.90;;;;;;7404677;19;20279;-77
2023/05/03 02:46:34;;;;;;;3.38;1.42;;;7.90;99.90;;;;;;7403918;19;19990;-78
2023/05/03 02:49:03;;;;;;;3.05;1.80;;;7.90;99.90;;;;;;7405225;19;19922;-79
2023/05/03 02:51:34;;;;;;;1.98;1.40;;;8.60;99.90;;;;;;7404724;19;19941;-79
2023/05/03 02:54:03;;;;;;;4.38;1.73;;;7.80;99.90;;;;;;7400167;19;19938;-79
2023/05/03 02:56:32;;;;;;;3.95;1.30;;;7.80;99.90;;;;;;7404695;19;19948;-79
2023/05/03 02:59:01;;;;;;;4.93;1.90;;;8.10;99.90;;;;;;7405414;19;20520;-78
2023/05/03 03:01:30;;;;;;;6.22;1.70;;;7.90;99.90;;;;;;7405024;19;19937;-78
2023/05/03 03:03:59;;;;;;;2.95;1.30;;;7.90;99.90;;;;;;7404506;19;19923;-79
2023/05/03 03:06:28;;;;;;;3.42;1.60;;;7.90;99.90;;;;;;7404001;19;19918;-78
2023/05/03 03:08:59;;;;;;;4.30;1.48;;;7.90;99.90;;;;;;7403227;19;19914;-79
2023/05/03 03:11:28;;;;;;;2.28;1.33;;;7.90;99.90;;;;;;7403254;19;19919;-79
2023/05/03 03:13:57;;;;;;;1.52;1.33;;;7.90;99.90;;;;;;7403284;19;19930;-78
2023/05/03 03:16:26;;;;;;;5.90;1.65;;;8.20;99.90;;;;;;7403634;19;19934;-78
2023/05/03 03:18:55;;;;;;;4.43;1.50;;;8.00;99.90;;;;;;7403044;19;19925;-79
2023/05/03 03:21:24;;;;;;;3.03;1.55;;;7.90;99.90;;;;;;7396517;19;20333;-78
2023/05/03 03:23:53;;;;;;;2.63;1.45;;;7.80;99.90;;;;;;7404563;19;19925;-78
2023/05/03 03:26:25;;;;;;;3.45;1.30;;;7.80;99.90;;;;;;7402285;19;19998;-79
2023/05/03 03:28:53;;;;;;;3.15;1.40;;;7.90;99.90;;;;;;7404938;19;19926;-78
2023/05/03 03:31:24;;;;;;;4.15;2.15;;;7.80;99.90;;;;;;7404912;19;19925;-79
2023/05/03 03:33:53;;;;;;;5.53;1.50;;;7.90;99.90;;;;;;7401298;19;19927;-79
2023/05/03 03:36:22;;;;;;;5.05;1.60;;;8.40;99.90;;;;;;7403504;19;19930;-79
2023/05/03 03:38:51;;;;;;;7.00;1.40;;;7.80;99.90;;;;;;7402221;19;19946;-79
2023/05/03 03:41:20;;;;;;;6.55;1.80;;;7.90;99.90;;;;;;7401492;19;19929;-79
2023/05/03 03:43:51;;;;;;;3.15;1.80;;;8.90;99.90;;;;;;7405616;19;19930;-79
2023/05/03 03:46:20;;;;;;;3.08;1.33;;;8.40;99.90;;;;;;7405002;19;19934;-78
2023/05/03 03:48:49;;;;;;;5.03;1.40;;;7.90;99.90;;;;;;7403021;19;19929;-78
2023/05/03 03:51:18;;;;;;;5.65;1.33;;;7.80;99.90;;;;;;7403144;19;19933;-78
2023/05/03 03:53:47;;;;;;;2.75;1.17;;;7.80;99.90;;;;;;7399302;19;19927;-77
2023/05/03 03:56:16;;;;;;;2.90;1.50;;;7.70;99.90;;;;;;7402988;19;19922;-79
2023/05/03 03:58:45;;;;;;;4.38;1.90;;;7.70;99.90;;;;;;7403433;19;19929;-78
2023/05/03 04:01:16;;;;;;;6.97;2.15;;;7.70;99.90;;;;;;7403170;19;19926;-78
2023/05/03 04:03:47;;;;;;;3.25;1.52;;;7.60;99.90;;;;;;7402418;19;19933;-79
2023/05/03 04:06:16;;;;;;;2.22;1.70;;;7.60;99.90;;;;;;7402314;19;19922;-79
2023/05/03 04:08:46;;;;;;;5.82;1.80;;;7.40;99.90;;;;;;7403575;19;19911;-79
2023/05/03 04:11:15;;;;;;;2.33;1.63;;;7.40;99.90;;;;;;7403998;19;19918;-79
2023/05/03 04:13:43;;;;;;;2.35;1.40;;;7.40;99.90;;;;;;7401775;19;19946;-79
2023/05/03 04:16:12;;;;;;;4.78;1.90;;;7.40;99.90;;;;;;7403533;19;19926;-78
2023/05/03 04:18:44;;;;;;;1.95;1.60;;;7.50;99.90;;;;;;7403278;19;19922;-79
2023/05/03 04:21:13;;;;;;;2.97;1.70;;;7.40;99.90;;;;;;7402285;19;19923;-78
2023/05/03 04:23:42;;;;;;;2.83;1.83;;;7.50;99.90;;;;;;7402950;19;19929;-79
2023/05/03 04:26:11;;;;;;;2.58;1.30;;;7.40;99.90;;;;;;7402301;19;19919;-80
2023/05/03 04:28:41;;;;;;;2.80;1.70;;;7.50;99.90;;;;;;7402300;19;20323;-78
2023/05/03 04:31:09;;;;;;;4.90;1.90;;;7.40;99.90;;;;;;7402902;19;19994;-78
2023/05/03 04:33:39;;;;;;;2.95;1.60;;;7.50;99.90;;;;;;7403136;19;19927;-78
2023/05/03 04:36:14;;;;;;;1.95;1.33;;;7.50;99.90;;;;;;7402340;19;19923;-78
2023/05/03 04:38:43;;;;;;;6.15;1.50;;;7.40;99.90;;;;;;7402250;19;19918;-78
2023/05/03 04:41:12;;;;;;;2.20;1.50;;;7.60;99.90;;;;;;7402307;19;19927;-78
2023/05/03 04:43:41;;;;;;;2.13;1.50;;;7.60;99.90;;;;;;7402001;19;20459;-79
2023/05/03 04:46:10;;;;;;;3.75;1.35;;;7.50;99.90;;;;;;7401699;19;19930;-79
2023/05/03 04:48:39;;;;;;;2.13;1.20;;;7.60;99.90;;;;;;7400297;19;19938;-78
2023/05/03 04:51:11;;;;;;;1.90;1.55;;;7.70;99.90;;;;;;7402648;19;19926;-79
2023/05/03 04:53:40;;;;;;;3.33;1.48;;;7.70;99.90;;;;;;7399420;19;20293;-79
2023/05/03 04:56:09;;;;;;;4.07;1.38;;;7.70;99.90;;;;;;7402336;19;19922;-79
2023/05/03 04:58:38;;;;;;;3.60;1.30;;;7.70;99.90;;;;;;7401023;19;19922;-78
2023/05/03 05:01:07;;;;;;;3.28;1.50;;;8.50;99.90;;;;;;7399966;19;20256;-79
2023/05/03 05:03:36;;;;;;;1.52;1.00;;;7.70;99.90;;;;;;7400489;19;20267;-78
2023/05/03 05:06:06;;;;;;;2.35;1.40;;;7.80;99.90;;;;;;7401642;19;19925;-79
2023/05/03 05:08:38;;;;;;;3.58;1.67;;;7.70;99.90;;;;;;7399070;19;19923;-79
2023/05/03 05:11:07;;;;;;;1.92;1.15;;;7.80;99.90;;;;;;7400732;19;19927;-79
2023/05/03 05:13:36;;;;;;;2.83;1.05;;;7.90;99.90;;;;;;7400440;19;19925;-78
2023/05/03 05:16:06;;;;;;;2.33;1.00;;;7.90;99.90;;;;;;7403852;19;19941;-79
2023/05/03 05:18:34;;;;;;;1.60;1.02;;;7.90;99.90;;;;;;7406625;19;19928;-79
2023/05/03 05:21:03;;;;;;;3.05;1.05;;;7.90;99.90;;;;;;7406338;19;19925;-79
2023/05/03 05:23:32;;;;;;;1.33;0.95;;;7.90;99.90;;;;;;7405738;19;19933;-79
2023/05/03 05:26:04;;;;;;;3.42;1.00;;;8.00;99.90;;;;;;7401275;19;20353;-79
2023/05/03 05:28:33;;;;;;;2.28;1.08;;;8.10;99.90;;;;;;7407034;19;19942;-79
2023/05/03 05:31:02;;;;;;;2.50;1.00;;;8.10;99.90;;;;;;7404983;19;19918;-78
2023/05/03 05:33:31;;;;;;;2.92;1.00;;;8.00;99.90;;;;;;7405879;19;19923;-78
2023/05/03 05:36:01;;;;;;;5.63;1.40;;;8.10;99.90;;;;;;7407437;19;19925;-79
2023/05/03 05:38:30;;;;;;;1.08;0.90;;;8.10;99.90;;;;;;7405600;19;19918;-79
2023/05/03 05:40:59;;;;;;;3.08;1.30;;;8.00;99.90;;;;;;7407516;19;20447;-79
2023/05/03 05:43:31;;;;;;;4.82;1.40;;;8.10;99.90;;;;;;7405565;19;19918;-79
2023/05/03 05:46:00;;;;;;;4.10;1.40;;;8.20;99.90;;;;;;7402958;19;20039;-83
2023/05/03 05:48:29;;;;;;;6.63;1.75;;;8.20;99.90;;;;;;7398379;19;19925;-80
2023/05/03 05:50:58;;;;;;;5.32;1.38;;;8.30;99.90;;;;;;7405261;19;19931;-80
2023/05/03 05:53:27;;;;;;;2.80;1.00;;;8.30;99.90;;;;;;7404979;19;19922;-80
2023/05/03 05:55:56;;;;;;;1.33;1.00;;;8.40;99.90;;;;;;7405878;19;19945;-79
2023/05/03 05:58:25;;;;;;;5.20;1.10;;;8.30;99.90;;;;;;7406744;19;19927;-80
2023/05/03 06:01:00;;;;;;;1.00;0.63;;;8.40;99.90;;;;;;7407192;19;20281;-79
2023/05/03 06:03:30;;;;;;;3.30;1.13;;;8.50;99.90;;;;;;7408054;19;19922;-82
2023/05/03 06:05:59;;;;;;;3.65;0.93;;;8.50;99.90;;;;;;7405424;19;20337;-80
2023/05/03 06:08:28;;;;;;;4.70;0.80;;;8.50;99.90;;;;;;7402860;19;19942;-81
2023/05/03 06:10:57;;;;;;;1.85;1.08;;;8.50;99.90;;;;;;7405536;19;20003;-80
2023/05/03 06:13:26;;;;;;;3.30;1.05;;;8.50;99.90;;;;;;7405293;19;20363;-80
2023/05/03 06:15:58;;;;;;;6.18;1.00;;;8.60;99.90;;;;;;7404900;19;19923;-80
2023/05/03 06:18:26;;;;;;;2.95;1.10;;;8.60;99.90;;;;;;7406068;19;19918;-80
2023/05/03 06:20:56;;;;;;;3.05;1.02;;;8.60;99.90;;;;;;7402264;19;19926;-80
2023/05/03 06:23:26;;;;;;;1.95;0.80;;;8.60;99.90;;;;;;7404592;19;19923;-82
2023/05/03 06:25:55;;;;;;;2.67;1.08;;;8.70;99.90;;;;;;7401350;19;20284;-81
2023/05/03 06:28:24;;;;;;;2.40;0.95;;;8.70;99.90;;;;;;7401627;19;19918;-81
2023/05/03 06:30:53;;;;;;;3.40;0.77;;;8.80;99.90;;;;;;7403023;19;19992;-82
2023/05/03 06:33:25;;;;;;;1.33;0.90;;;8.80;99.90;;;;;;7404167;19;19922;-82
2023/05/03 06:35:55;;;;;;;2.25;0.90;;;8.80;99.90;;;;;;7402066;19;20263;-81
2023/05/03 06:38:25;;;;;;;1.83;0.75;;;8.80;99.90;;;;;;7402031;19;19910;-81
2023/05/03 06:40:54;;;;;;;2.17;1.05;;;8.80;99.90;;;;;;7403731;19;19946;-82
2023/05/03 06:43:22;;;;;;;2.38;0.90;;;9.10;99.90;;;;;;7403994;19;19934;-82
2023/05/03 06:45:54;;;;;;;1.30;0.85;;;9.00;99.90;;;;;;7402937;19;20269;-82
2023/05/03 06:48:26;;;;;;;0.70;0.60;;;9.00;99.90;;;;;;7402949;19;19922;-81
2023/05/03 06:50:55;;;;;;;2.13;0.70;;;9.10;99.90;;;;;;7402593;19;19922;-82
2023/05/03 06:53:24;;;;;;;1.45;0.70;;;9.10;99.90;;;;;;7401559;19;19932;-81
2023/05/03 06:55:53;;;;;;;3.55;0.77;;;9.10;99.90;;;;;;7401767;19;20403;-82
2023/05/03 06:58:23;;;;;;;2.38;0.55;;;9.10;99.90;;;;;;7401925;19;19926;-81
2023/05/03 07:00:54;;;;;;;1.77;0.70;;;9.20;99.90;;;;;;7402019;19;19919;-82
2023/05/03 07:03:26;;;;;;;1.75;1.00;;;9.10;99.90;;;;;;7403994;19;19926;-81
2023/05/03 07:05:55;;;;;;;4.95;0.80;;;9.30;99.90;;;;;;7403346;19;19926;-82
2023/05/03 07:08:24;;;;;;;1.90;0.60;;;9.20;99.90;;;;;;7404412;19;19990;-82
2023/05/03 07:10:52;;;;;;;1.65;0.73;;;9.70;99.90;;;;;;7405582;19;20006;-82
2023/05/03 07:13:21;;;;;;;2.53;0.68;;;9.20;99.90;;;;;;7405869;19;19922;-81
2023/05/03 07:15:50;;;;;;;0.98;0.57;;;9.30;99.90;;;;;;7401812;19;19914;-82
2023/05/03 07:18:19;;;;;;;2.30;0.80;;;9.40;99.90;;;;;;7405497;19;20268;-81
2023/05/03 07:20:51;;;;;;;3.50;0.85;;;9.40;99.90;;;;;;7403953;19;20360;-80
2023/05/03 07:23:20;;;;;;;2.88;1.08;;;9.30;99.90;;;;;;7399067;19;19922;-81
2023/05/03 07:25:49;;;;;;;1.33;0.90;;;9.50;99.90;;;;;;7402681;19;19929;-81
2023/05/03 07:28:18;;;;;;;1.92;0.60;;;9.60;99.90;;;;;;7402994;19;19934;-82
2023/05/03 07:30:47;;;;;;;1.65;0.70;;;9.40;99.90;;;;;;7402004;19;19923;-81
2023/05/03 07:33:16;;;;;;;1.88;0.70;;;9.50;99.90;;;;;;7401724;19;20342;-81
2023/05/03 07:35:47;;;;;;;1.35;0.57;;;9.50;99.90;;;;;;7400619;19;19919;-81
2023/05/03 07:38:19;;;;;;;4.15;0.95;;;9.70;99.90;;;;;;7400664;19;20288;-80
2023/05/03 07:40:49;;;;;;;3.33;0.73;;;9.80;99.90;;;;;;7402762;19;19914;-80
2023/05/03 07:43:20;;;;;;;3.50;0.60;;;9.70;99.90;;;;;;7402641;19;20336;-81
2023/05/03 07:45:48;;;;;;;3.42;0.80;;;9.80;99.90;;;;;;7404006;19;19953;-81
2023/05/03 07:48:17;;;;;;;0.95;0.50;;;9.80;99.90;;;;;;7403178;19;20263;-80
2023/05/03 07:50:46;;;;;;;2.20;0.45;;;9.90;99.90;;;;;;7401339;19;19923;-80
2023/05/03 07:53:18;;;;;;;1.33;0.80;;;9.70;99.90;;;;;;7400572;19;20359;-80
2023/05/03 07:55:47;;;;;;;3.00;0.60;;;9.80;99.90;;;;;;7400069;19;19922;-80
2023/05/03 07:58:16;;;;;;;2.72;0.80;;;9.90;99.90;;;;;;7399863;19;19953;-81
2023/05/03 08:00:45;;;;;;;1.70;0.50;;;9.70;99.90;;;;;;7400833;19;19938;-79
2023/05/03 08:03:14;;;;;;;1.98;0.88;;;9.90;99.90;;;;;;7401095;19;19950;-80
2023/05/03 08:05:43;;;;;;;1.80;0.57;;;9.90;99.90;;;;;;7403205;19;19923;-80
2023/05/03 08:08:13;;;;;;;2.75;0.60;;;10.00;99.90;;;;;;7399294;19;19925;-80
2023/05/03 08:10:44;;;;;;;0.57;0.50;;;10.00;99.90;;;;;;7401722;19;19926;-81
2023/05/03 08:13:13;;;;;;;2.55;0.60;;;9.80;99.90;;;;;;7401567;19;20257;-81
2023/05/03 08:15:42;;;;;;;1.98;0.70;;;10.00;99.90;;;;;;7400375;19;19930;-81
2023/05/03 08:18:11;;;;;;;1.48;0.80;;;10.10;99.90;;;;;;7402201;19;19933;-80
2023/05/03 08:20:41;;;;;;;1.42;0.77;;;10.20;99.90;;;;;;7399674;19;19958;-82
2023/05/03 08:23:10;;;;;;;3.80;0.73;;;10.20;99.90;;;;;;7399575;19;19923;-80
2023/05/03 08:25:38;;;;;;;2.35;0.70;;;10.30;99.90;;;;;;7401452;19;19958;-81
2023/05/03 08:28:10;;;;;;;3.72;0.70;;;10.30;99.90;;;;;;7400567;19;19939;-82
2023/05/03 08:30:39;;;;;;;2.40;0.77;;;10.30;99.90;;;;;;7401530;19;19922;-82
2023/05/03 08:33:10;;;;;;;2.00;0.60;;;10.40;99.90;;;;;;7401440;19;19922;-81
2023/05/03 08:35:39;;;;;;;1.48;0.80;;;10.50;99.90;;;;;;7398672;19;19926;-82
2023/05/03 08:38:08;;;;;;;1.27;0.50;;;10.60;99.90;;;;;;7403376;19;19926;-81
2023/05/03 08:40:39;;;;;;;2.00;0.50;;;10.50;99.90;;;;;;7399826;19;19933;-82
2023/05/03 08:43:13;;;;;;;2.15;0.70;;;12.10;99.90;;;;;;7394738;19;19923;-82
2023/05/03 08:45:42;;;;;;;2.35;0.70;;;10.70;99.90;;;;;;7397565;19;19929;-82
2023/05/03 08:48:12;;;;;;;2.90;0.77;;;10.60;99.90;;;;;;7399302;19;19910;-82
2023/05/03 08:50:42;;;;;;;2.50;0.63;;;10.70;99.90;;;;;;7395039;19;19922;-82
2023/05/03 08:53:11;;;;;;;1.80;0.65;;;10.70;99.90;;;;;;7400047;19;20348;-82
2023/05/03 08:55:40;;;;;;;3.83;0.85;;;10.60;99.90;;;;;;7395853;19;20320;-82
2023/05/03 08:58:12;;;;;;;1.67;0.65;;;10.60;99.90;;;;;;7398516;19;19919;-82
2023/05/03 09:00:43;;;;;;;1.92;0.98;;;10.50;99.90;;;;;;7399338;19;19962;-82
2023/05/03 09:03:13;;;;;;;4.78;1.23;;;10.60;99.90;;;;;;7399701;19;19944;-81
2023/05/03 09:05:43;;;;;;;1.75;0.70;;;10.70;99.90;;;;;;7399925;19;19935;-82
2023/05/03 09:08:15;;;;;;;1.65;0.70;;;10.20;99.90;;;;;;7398416;19;19923;-81
2023/05/03 09:10:44;;;;;;;3.13;0.80;;;10.70;99.90;;;;;;7401024;19;19934;-81
2023/05/03 09:13:16;;;;;;;2.78;0.80;;;10.70;99.90;;;;;;7398326;19;19957;-81
2023/05/03 09:15:46;;;;;;;0.90;0.63;;;10.80;99.90;;;;;;7399357;19;19968;-81
2023/05/03 09:18:17;;;;;;;2.53;0.80;;;10.70;99.90;;;;;;7400040;19;19921;-81
2023/05/03 09:20:50;;;;;;;2.88;0.70;;;10.90;99.90;;;;;;7397388;19;19918;-80
2023/05/03 09:23:20;;;;;;;1.60;0.70;;;10.80;99.90;;;;;;7399319;19;20470;-80
2023/05/03 09:25:51;;;;;;;4.30;0.70;;;10.90;99.90;;;;;;7399296;19;19926;-81
2023/05/03 09:28:23;;;;;;;1.95;0.63;;;11.00;99.90;;;;;;7401526;19;19919;-81
2023/05/03 09:31:05;;;;;;;2.25;0.80;;;10.80;99.90;;;;;;7399842;19;19922;-80
2023/05/03 09:33:34;;;;;;;4.22;0.90;;;10.90;99.90;;;;;;7399364;19;19929;-80
2023/05/03 09:36:05;;;;;;;1.85;0.90;;;10.90;99.90;;;;;;7398897;19;19930;-80
2023/05/03 09:38:36;;;;;;;1.85;0.75;;;11.00;99.90;;;;;;7400908;19;19935;-81
2023/05/03 09:41:05;;;;;;;3.25;0.80;;;10.90;99.90;;;;;;7399282;19;20352;-81
2023/05/03 09:43:37;;;;;;;3.58;0.80;;;11.00;99.90;;;;;;7398921;19;19928;-80
2023/05/03 09:46:11;;;;;;;1.20;0.60;;;11.00;99.90;;;;;;7398746;19;19922;-81
2023/05/03 09:48:41;;;;;;;3.97;0.90;;;11.00;99.90;;;;;;7399046;19;19918;-81
2023/05/03 09:51:11;;;;;;;3.42;0.88;;;11.10;99.90;;;;;;7399647;19;19922;-81
2023/05/03 09:53:42;;;;;;;1.40;0.60;;;11.20;99.90;;;;;;7397203;19;19937;-81
2023/05/03 09:56:14;;;;;;;3.17;1.00;;;11.20;99.90;;;;;;7399738;19;19926;-79
2023/05/03 09:58:46;;;;;;;4.40;1.48;;;11.20;99.90;;;;;;7393930;19;19930;-79
2023/05/03 10:01:16;;;;;;;2.25;0.63;;;11.10;99.90;;;;;;7392223;19;19998;-74
2023/05/03 10:03:49;;;;;;;1.92;0.60;;;11.30;99.90;;;;;;7405093;19;19927;-74
2023/05/03 10:06:25;;;;;;;1.67;0.60;;;11.40;99.90;;;;;;7403171;19;19934;-75
2023/05/03 10:09:05;;;;;;;2.00;0.80;;;11.30;99.90;;;;;;7401636;19;19918;-75
2023/05/03 10:11:36;;;;;;;2.28;0.65;;;11.30;99.90;;;;;;7404123;19;19937;-74
2023/05/03 10:14:08;;;;;;;1.10;0.90;;;11.30;99.90;;;;;;7403382;19;19923;-74
2023/05/03 10:16:40;;;;;;;1.52;0.70;;;11.30;99.90;;;;;;7401402;19;20342;-75
2023/05/03 10:19:14;;;;;;;1.85;0.65;;;11.50;99.90;;;;;;7402675;19;19926;-75
2023/05/03 10:21:55;;;;;;;0.73;0.60;;;11.60;99.90;;;;;;7403070;19;19953;-74
2023/05/03 10:24:24;;;;;;;1.77;0.90;;;11.50;99.90;;;;;;7404154;19;19922;-74
2023/05/03 10:26:53;;;;;;;2.95;0.80;;;11.50;99.90;;;;;;7402179;19;19918;-74
2023/05/03 10:29:52;;;;;;;1.60;0.70;;;11.70;99.90;;;;;;7404993;19;19919;-74
2023/05/03 10:32:32;;;;;;;2.05;0.60;;;11.70;99.90;;;;;;7403980;19;19927;-74
2023/05/03 10:35:04;;;;;;;2.08;1.02;;;11.70;99.90;;;;;;7405488;19;20340;-75
2023/05/03 10:37:35;;;;;;;1.10;0.80;;;11.80;99.90;;;;;;7402377;19;19950;-75
2023/05/03 10:40:13;;;;;;;1.20;0.60;;;12.00;99.90;;;;;;7403143;19;19945;-75
2023/05/03 10:42:46;;;;;;;0.68;0.60;;;12.10;99.90;;;;;;7402603;19;19914;-75
2023/05/03 10:45:28;;;;;;;3.10;1.05;;;12.30;99.90;;;;;;7403906;19;19926;-74
2023/05/03 10:48:19;;;;;;;0.82;0.80;;;12.20;99.90;;;;;;7401610;19;19918;-74
2023/05/03 10:50:50;;;;;;;3.22;0.77;;;12.20;99.90;;;;;;7403088;19;19925;-75
2023/05/03 10:53:38;;;;;;;0.75;0.70;;;12.20;99.90;;;;;;7401078;19;19918;-74
2023/05/03 10:56:09;;;;;;;1.10;0.47;;;12.30;99.90;;;;;;7401187;19;20818;-75
2023/05/03 10:58:39;;;;;;;2.55;1.00;;;11.70;99.90;;;;;;7404073;19;19919;-76
2023/05/03 11:01:12;;;;;;;2.50;0.80;;;12.40;99.90;;;;;;7401753;19;20320;-75
2023/05/03 11:03:58;;;;;;;2.10;0.70;;;12.40;99.90;;;;;;7402781;19;19942;-76
2023/05/03 11:06:35;;;;;;;1.50;0.80;;;12.50;99.90;;;;;;7403262;19;19922;-75
2023/05/03 11:09:07;;;;;;;5.28;0.90;;;12.50;99.90;;;;;;7400491;19;19927;-77
2023/05/03 11:11:38;;;;;;;1.17;0.82;;;12.40;99.90;;;;;;7405735;19;19914;-75
2023/05/03 11:14:07;;;;;;;4.15;0.82;;;12.40;99.90;;;;;;7401158;19;19923;-76
2023/05/03 11:16:46;;;;;;;4.13;0.90;;;12.40;99.90;;;;;;7400661;19;19929;-75
2023/05/03 11:19:16;;;;;;;2.05;0.60;;;12.70;99.90;;;;;;7403545;19;20261;-75
2023/05/03 11:21:45;;;;;;;1.58;1.10;;;12.70;99.90;;;;;;7404746;19;19922;-75
2023/05/03 11:24:14;;;;;;;2.28;0.90;;;12.90;99.90;;;;;;7400530;19;19922;-79
2023/05/03 11:26:43;;;;;;;2.00;0.85;;;12.80;99.90;;;;;;7403574;19;19914;-78
2023/05/03 11:29:12;;;;;;;4.93;0.80;;;12.70;99.90;;;;;;7402048;19;19933;-78
2023/05/03 11:31:44;;;;;;;1.90;0.70;;;12.70;99.90;;;;;;7402476;19;20348;-79
2023/05/03 11:34:14;;;;;;;2.50;0.95;;;12.60;99.90;;;;;;7400376;19;19918;-79
2023/05/03 11:36:43;;;;;;;1.60;0.93;;;12.60;99.90;;;;;;7400960;19;19926;-78
2023/05/03 11:39:14;;;;;;;4.45;1.00;;;12.70;99.90;;;;;;7401710;19;19955;-78
2023/05/03 11:41:43;;;;;;;2.85;0.90;;;12.80;99.90;;;;;;7402765;19;19926;-79
2023/05/03 11:44:12;;;;;;;2.58;0.88;;;12.90;99.90;;;;;;7402390;19;19942;-79
2023/05/03 11:46:45;;;;;;;1.10;0.98;;;13.00;99.90;;;;;;7402584;19;19919;-79
2023/05/03 11:49:19;;;;;;;1.77;0.90;;;13.00;99.90;;;;;;7400856;19;19926;-80
2023/05/03 11:51:48;;;;;;;4.95;1.20;;;12.80;99.90;;;;;;7402592;19;19918;-79
2023/05/03 11:54:17;;;;;;;5.10;1.33;;;13.10;99.90;;;;;;7401055;19;19929;-79
2023/05/03 11:56:46;;;;;;;1.50;0.90;;;13.10;99.90;;;;;;7400713;19;19918;-79
2023/05/03 11:59:15;;;;;;;2.00;1.10;;;13.10;99.90;;;;;;7401096;19;19929;-78
2023/05/03 12:01:48;;;;;;;4.57;1.10;;;13.40;99.90;;;;;;7400910;19;19978;-78
2023/05/03 12:04:18;;;;;;;1.38;1.05;;;13.30;99.90;;;;;;7401856;19;19927;-79
2023/05/03 12:06:51;;;;;;;2.45;1.15;;;13.50;99.90;;;;;;7399069;19;19923;-79
2023/05/03 12:09:22;;;;;;;2.08;0.90;;;13.50;99.90;;;;;;7398630;19;20372;-79
2023/05/03 12:11:51;;;;;;;3.83;1.00;;;13.70;99.90;;;;;;7401477;19;19932;-79
2023/05/03 12:14:20;;;;;;;3.58;0.88;;;13.80;99.90;;;;;;7400112;19;20280;-79
2023/05/03 12:16:53;;;;;;;3.47;1.15;;;13.90;99.90;;;;;;7399953;19;21748;-79
2023/05/03 12:19:27;;;;;;;5.80;0.95;;;14.10;99.90;;;;;;7400717;19;19926;-79
2023/05/03 12:21:55;;;;;;;2.95;1.00;;;14.10;99.90;;;;;;7399036;19;19941;-79
2023/05/03 12:24:25;;;;;;;3.80;1.40;;;14.00;99.90;;;;;;7400224;19;19927;-78
2023/05/03 12:26:54;;;;;;;1.67;1.05;;;13.70;99.90;;;;;;7399744;19;19989;-78
2023/05/03 12:29:23;;;;;;;1.80;0.90;;;13.60;99.90;;;;;;7401258;19;19951;-79
2023/05/03 12:31:55;;;;;;;1.80;1.00;;;13.50;99.90;;;;;;7400658;19;19926;-79
2023/05/03 12:34:24;;;;;;;2.97;1.10;;;13.70;99.90;;;;;;7399340;19;19927;-79
2023/05/03 12:36:53;;;;;;;3.50;1.10;;;14.20;99.90;;;;;;7400057;19;19914;-78
2023/05/03 12:39:22;;;;;;;2.45;1.00;;;14.60;99.90;;;;;;7400319;19;19930;-79
2023/05/03 12:41:50;;;;;;;2.90;1.08;;;14.70;99.90;;;;;;7400240;19;19977;-79
2023/05/03 12:44:20;;;;;;;3.17;1.00;;;15.00;99.90;;;;;;7396085;19;19926;-80
2023/05/03 12:46:49;;;;;;;2.90;1.00;;;15.40;99.90;;;;;;7398121;19;19937;-80
2023/05/03 12:49:21;;;;;;;3.20;1.05;;;15.20;99.90;;;;;;7401779;19;19930;-78
2023/05/03 12:51:50;;;;;;;1.27;0.98;;;14.90;99.90;;;;;;7398323;19;19922;-79
2023/05/03 12:54:19;;;;;;;3.00;1.05;;;14.90;99.90;;;;;;7399154;19;19951;-80
2023/05/03 12:56:47;;;;;;;2.05;0.80;;;14.80;99.90;;;;;;7398934;19;20272;-79
2023/05/03 12:59:16;;;;;;;1.70;1.17;;;16.30;99.90;;;;;;7399051;19;19918;-80
2023/05/03 13:01:46;;;;;;;2.03;1.02;;;15.20;99.90;;;;;;7399910;19;19915;-80
2023/05/03 13:04:15;;;;;;;3.67;1.10;;;15.40;99.90;;;;;;7399804;19;19938;-80
2023/05/03 13:06:49;;;;;;;5.03;0.98;;;15.50;99.90;;;;;;7399346;19;19911;-80
2023/05/03 13:09:18;;;;;;;2.20;1.10;;;15.90;99.90;;;;;;7397174;19;19927;-80
2023/05/03 13:11:48;;;;;;;2.42;1.10;;;15.90;99.90;;;;;;7399014;19;19925;-80
2023/05/03 13:14:17;;;;;;;2.50;1.15;;;16.10;99.90;;;;;;7398087;19;19948;-80
2023/05/03 13:16:47;;;;;;;1.95;1.00;;;16.10;99.90;;;;;;7398654;19;19922;-80